This is the latest recevied weather packets stored in our database for station/object BI2QYU-13. If no packets are shown the sender has not sent any weather packets the latest 10 day(s).
| Time | Temp. | Humidity | Pressure | Rain* | Wind** | Luminosity | Snow |
|---|---|---|---|---|---|---|---|
| 1778092372 | 28.89° C | 38% | 1025 hPa | 0 mm | - | - | - |
| 1778090570 | 30.56° C | 35% | 1025 hPa | 0 mm | - | - | - |
| 1778088767 | 30° C | 38% | 1025 hPa | 0 mm | - | - | - |
| 1778086964 | 30° C | 38% | 1025 hPa | 0 mm | - | - | - |
| 1778085162 | 30° C | 37% | 1025 hPa | 0 mm | - | - | - |
| 1778083359 | 30° C | 37% | 1025 hPa | 0 mm | - | - | - |
| 1778081553 | 29.44° C | 38% | 1025 hPa | 0 mm | - | - | - |
| 1778079751 | 29.44° C | 39% | 1025 hPa | 0 mm | - | - | - |
| 1778077948 | 30° C | 37% | 1025 hPa | 0 mm | - | - | - |
| 1778076145 | 31.11° C | 35% | 1025 hPa | 0 mm | - | - | - |
| 1778074342 | 31.11° C | 35% | 1025 hPa | 0 mm | - | - | - |
| 1778072539 | 30° C | 37% | 1025 hPa | 0 mm | - | - | - |
| 1778070736 | 29.44° C | 37% | 1025 hPa | 0 mm | - | - | - |
| 1778068934 | 30.56° C | 33% | 1025 hPa | 0 mm | - | - | - |
| 1778067131 | 29.44° C | 35% | 1025 hPa | 0 mm | - | - | - |
| 1778065329 | 29.44° C | 36% | 1025 hPa | 0 mm | - | - | - |
| 1778063526 | 28.33° C | 38% | 1025 hPa | 0 mm | - | - | - |
| 1778061723 | 28.33° C | 38% | 1025 hPa | 0 mm | - | - | - |
| 1778059919 | 28.33° C | 37% | 1025 hPa | 0 mm | - | - | - |
| 1778058116 | 29.44° C | 35% | 1025 hPa | 0 mm | - | - | - |
| 1778056313 | 30° C | 34% | 1025 hPa | 0 mm | - | - | - |
| 1778054510 | 29.44° C | 35% | 1025 hPa | 0 mm | - | - | - |
| 1778052708 | 29.44° C | 34% | 1025 hPa | 0 mm | - | - | - |
| 1778050905 | 30° C | 34% | 1025 hPa | 0 mm | - | - | - |
| 1778049101 | 29.44° C | 35% | 1025 hPa | 0 mm | - | - | - |
* Rain latest hour (hover to see other rain measurements)
** Current wind speed in m/s (hover to see current wind gust speed)